Time;durP1;ratioP1;P1;durP2;ratioP2;P2;SDS_P1;SDS_P2;PMS_P1;PMS_P2;Temp;Humidity;BMP_temperature;BMP_pressure;BME280_temperature;BME280_humidity;BME280_pressure;Samples;Min_cycle;Max_cycle;Signal;HPM_P1;HPM_P2
2022/04/01 00:00:09;;;;;;;3.08;1.95;;;1.70;99.90;;;;;;4830938;29;20030;-91
2022/04/01 00:02:37;;;;;;;2.17;1.73;;;1.70;99.90;;;;;;4831229;29;20034;-92
2022/04/01 00:05:04;;;;;;;4.13;1.98;;;1.70;99.90;;;;;;4831266;29;20072;-92
2022/04/01 00:07:30;;;;;;;3.65;2.15;;;1.70;99.90;;;;;;4831314;29;20093;-91
2022/04/01 00:09:56;;;;;;;5.88;2.55;;;1.70;99.90;;;;;;4830868;29;20048;-94
2022/04/01 00:12:22;;;;;;;6.10;1.90;;;1.60;99.90;;;;;;4831173;29;20034;-93
2022/04/01 00:14:47;;;;;;;2.88;1.65;;;1.60;99.90;;;;;;4831144;29;20044;-90
2022/04/01 00:17:13;;;;;;;6.90;1.75;;;1.60;99.90;;;;;;4831293;29;20075;-92
2022/04/01 00:19:39;;;;;;;2.83;1.88;;;1.70;99.90;;;;;;4831887;29;20036;-91
2022/04/01 00:22:05;;;;;;;2.17;1.38;;;1.70;99.90;;;;;;4844109;29;20033;-92
2022/04/01 00:24:32;;;;;;;6.80;1.60;;;1.70;99.90;;;;;;4836472;29;20093;-93
2022/04/01 00:26:58;;;;;;;2.88;1.45;;;1.70;99.90;;;;;;4830310;29;20060;-91
2022/04/01 00:29:25;;;;;;;4.95;1.40;;;1.70;99.90;;;;;;4830177;29;20056;-92
2022/04/01 00:32:00;;;;;;;5.80;1.70;;;1.70;99.90;;;;;;4830724;29;20514;-94
2022/04/01 00:34:26;;;;;;;4.40;1.50;;;1.70;99.90;;;;;;4830631;29;20424;-92
2022/04/01 00:36:53;;;;;;;7.72;1.58;;;1.70;99.90;;;;;;4829897;29;20091;-91
2022/04/01 00:39:20;;;;;;;3.58;1.75;;;1.70;99.90;;;;;;4830355;29;20041;-93
2022/04/01 00:41:47;;;;;;;3.03;1.50;;;1.70;99.90;;;;;;4829862;29;20106;-91
2022/04/01 00:44:19;;;;;;;2.50;1.90;;;1.70;99.90;;;;;;4836608;29;20030;-91
2022/04/01 00:46:50;;;;;;;3.30;1.75;;;1.70;99.90;;;;;;4836488;29;20107;-92
2022/04/01 00:49:17;;;;;;;8.05;2.25;;;1.70;99.90;;;;;;4829905;29;20037;-93
2022/04/01 00:51:44;;;;;;;9.45;1.90;;;1.60;99.90;;;;;;4829758;29;20120;-93
2022/04/01 00:54:10;;;;;;;2.95;1.90;;;1.60;99.90;;;;;;4828366;29;20061;-91
2022/04/01 00:56:37;;;;;;;10.20;1.70;;;1.60;99.90;;;;;;4828868;29;20125;-91
2022/04/01 00:59:04;;;;;;;3.50;1.92;;;1.60;99.90;;;;;;4829135;29;20030;-91
2022/04/01 01:01:33;;;;;;;5.63;1.83;;;1.50;99.90;;;;;;4829421;29;20451;-90
2022/04/01 01:04:13;;;;;;;3.63;1.35;;;1.50;99.90;;;;;;4829781;29;20057;-91
2022/04/01 01:06:41;;;;;;;4.23;1.67;;;1.50;99.90;;;;;;4829305;29;20037;-92
2022/04/01 01:09:08;;;;;;;6.90;1.95;;;1.50;99.90;;;;;;4834545;29;20371;-92
2022/04/01 01:11:35;;;;;;;6.82;1.55;;;1.50;99.90;;;;;;4837892;29;20056;-92
2022/04/01 01:14:05;;;;;;;4.90;1.90;;;1.60;99.90;;;;;;4829696;29;20044;-91
2022/04/01 01:16:31;;;;;;;5.65;1.70;;;1.50;99.90;;;;;;4828805;29;20041;-92
2022/04/01 01:19:10;;;;;;;11.98;3.13;;;1.50;99.90;;;;;;4829304;29;20042;-92
2022/04/01 01:21:36;;;;;;;6.55;1.67;;;1.50;99.90;;;;;;4829192;29;20030;-92
2022/04/01 01:24:16;;;;;;;6.72;1.63;;;1.50;99.90;;;;;;4829049;29;20038;-92
2022/04/01 01:26:51;;;;;;;4.05;1.70;;;1.50;99.90;;;;;;4828470;29;20085;-92
2022/04/01 01:29:28;;;;;;;6.15;1.77;;;1.50;99.90;;;;;;4831731;29;20038;-92
2022/04/01 01:31:56;;;;;;;10.98;1.75;;;1.50;99.90;;;;;;4833415;29;20093;-91
2022/04/01 01:34:23;;;;;;;5.32;1.92;;;1.50;99.90;;;;;;4832093;29;20048;-92
2022/04/01 01:36:50;;;;;;;4.32;1.30;;;1.50;99.90;;;;;;4829415;29;20034;-93
2022/04/01 01:39:16;;;;;;;4.82;1.35;;;1.60;99.90;;;;;;4828187;29;20025;-93
2022/04/01 01:41:43;;;;;;;5.25;1.83;;;1.50;99.90;;;;;;4827876;29;20037;-91
2022/04/01 01:44:10;;;;;;;3.30;1.60;;;1.50;99.90;;;;;;4827756;29;20037;-92
2022/04/01 01:46:36;;;;;;;3.25;1.00;;;1.50;99.90;;;;;;4828157;29;20064;-91
2022/04/01 01:49:02;;;;;;;2.15;1.55;;;1.40;99.90;;;;;;4827580;29;20042;-91
2022/04/01 01:56:55;;;;;;;6.32;1.55;;;1.40;99.90;;;;;;4844403;29;20507;-91
2022/04/01 01:59:21;;;;;;;1.95;1.52;;;1.40;99.90;;;;;;4828196;29;20026;-92
2022/04/01 02:01:47;;;;;;;3.63;1.88;;;1.40;99.90;;;;;;4827616;29;20460;-91
2022/04/01 02:04:13;;;;;;;2.92;1.40;;;1.40;99.90;;;;;;4827750;29;20068;-91
2022/04/01 02:06:39;;;;;;;3.50;1.50;;;1.40;99.90;;;;;;4827811;29;20446;-92
2022/04/01 02:09:05;;;;;;;4.45;1.73;;;1.40;99.90;;;;;;4828970;29;20034;-92
2022/04/01 02:11:31;;;;;;;2.03;1.40;;;1.40;99.90;;;;;;4828480;29;20030;-91
2022/04/01 02:13:57;;;;;;;4.07;1.17;;;1.40;99.90;;;;;;4835325;29;20128;-92
2022/04/01 02:16:23;;;;;;;3.58;2.00;;;1.40;99.90;;;;;;4837017;29;20061;-92
2022/04/01 02:18:49;;;;;;;2.85;1.65;;;1.30;99.90;;;;;;4833614;29;20030;-92
2022/04/01 02:21:16;;;;;;;9.20;1.80;;;1.30;99.90;;;;;;4831059;29;20037;-92
2022/04/01 02:23:44;;;;;;;1.80;1.20;;;1.30;99.90;;;;;;4827915;29;20030;-91
2022/04/01 02:26:10;;;;;;;7.05;2.60;;;1.30;99.90;;;;;;4829096;29;20099;-94
2022/04/01 02:28:41;;;;;;;4.57;1.55;;;1.40;99.90;;;;;;4830869;29;20046;-92
2022/04/01 02:31:07;;;;;;;7.68;1.98;;;1.30;99.90;;;;;;4839858;29;20038;-91
2022/04/01 02:33:34;;;;;;;3.08;1.40;;;1.30;99.90;;;;;;4832514;29;20045;-91
2022/04/01 02:36:02;;;;;;;1.55;1.20;;;1.30;99.90;;;;;;4827422;29;20071;-93
2022/04/01 02:38:30;;;;;;;2.28;1.17;;;1.30;99.90;;;;;;4827555;29;20431;-92
2022/04/01 02:40:57;;;;;;;2.67;1.10;;;1.30;99.90;;;;;;4827247;29;20078;-91
2022/04/01 02:43:23;;;;;;;0.85;0.85;;;1.30;99.90;;;;;;4827914;29;20116;-93
2022/04/01 02:45:49;;;;;;;1.65;1.00;;;1.30;99.90;;;;;;4827157;29;20461;-92
2022/04/01 02:48:16;;;;;;;1.30;1.05;;;1.30;99.90;;;;;;4827309;29;20041;-93
2022/04/01 02:50:46;;;;;;;1.27;1.00;;;1.20;99.90;;;;;;4827327;29;20037;-94
2022/04/01 02:53:12;;;;;;;1.30;1.10;;;1.20;99.90;;;;;;4827291;29;20038;-91
2022/04/01 02:55:38;;;;;;;4.43;1.10;;;1.20;99.90;;;;;;4832335;29;20049;-92
2022/04/01 02:58:06;;;;;;;4.07;1.63;;;1.20;99.90;;;;;;4832386;29;20094;-92
2022/04/01 03:00:38;;;;;;;2.70;2.08;;;1.30;99.90;;;;;;4832498;29;20030;-91
2022/04/01 03:03:06;;;;;;;3.45;1.73;;;1.20;99.90;;;;;;4826761;29;20030;-93
2022/04/01 03:05:36;;;;;;;1.70;1.50;;;1.30;99.90;;;;;;4826788;29;20476;-91
2022/04/01 03:08:05;;;;;;;1.60;1.20;;;1.30;99.90;;;;;;4826578;29;20232;-91
2022/04/01 03:10:35;;;;;;;4.25;1.70;;;1.30;99.90;;;;;;4826964;29;20038;-93
2022/04/01 03:13:01;;;;;;;3.28;1.15;;;1.30;99.90;;;;;;4827296;29;20038;-93
2022/04/01 03:15:30;;;;;;;3.28;1.73;;;1.30;99.90;;;;;;4826456;29;20079;-91
2022/04/01 03:17:57;;;;;;;1.60;1.25;;;1.30;99.90;;;;;;4828750;29;20037;-92
2022/04/01 03:20:23;;;;;;;1.58;1.30;;;1.30;99.90;;;;;;4829254;29;20023;-92
2022/04/01 03:22:50;;;;;;;1.60;1.45;;;1.20;99.90;;;;;;4830109;29;20029;-92
2022/04/01 03:25:18;;;;;;;3.45;1.90;;;1.20;99.90;;;;;;4829832;29;20034;-91
2022/04/01 03:27:47;;;;;;;7.15;1.52;;;1.10;99.90;;;;;;4830019;29;20061;-91
2022/04/01 03:30:14;;;;;;;2.53;1.40;;;1.20;99.90;;;;;;4830158;29;20030;-91
2022/04/01 03:32:41;;;;;;;3.38;1.65;;;1.10;99.90;;;;;;4830032;29;20040;-90
2022/04/01 03:35:14;;;;;;;5.63;1.95;;;1.10;99.90;;;;;;4829091;29;20030;-90
2022/04/01 03:37:41;;;;;;;3.28;1.80;;;1.00;99.90;;;;;;4829176;29;20053;-92
2022/04/01 03:40:11;;;;;;;3.85;1.70;;;1.00;99.90;;;;;;4829427;29;20046;-91
2022/04/01 03:42:36;;;;;;;5.10;1.40;;;1.00;99.90;;;;;;4814422;29;20065;-91
2022/04/01 03:45:06;;;;;;;2.47;1.23;;;1.00;99.90;;;;;;4829407;29;20084;-91
2022/04/01 03:47:44;;;;;;;1.98;1.08;;;1.00;99.90;;;;;;4811315;29;20504;-91
2022/04/01 03:50:12;;;;;;;2.47;1.15;;;1.00;99.90;;;;;;4825432;29;20030;-91
2022/04/01 03:52:38;;;;;;;2.90;1.20;;;1.00;99.90;;;;;;4813795;29;20622;-91
2022/04/01 03:55:07;;;;;;;1.73;0.90;;;1.00;99.90;;;;;;4811956;29;20052;-92
2022/04/01 03:57:38;;;;;;;2.30;1.25;;;1.00;99.90;;;;;;4822388;29;20030;-91
2022/04/01 04:00:07;;;;;;;4.10;1.33;;;0.90;99.90;;;;;;4818479;29;20019;-90
2022/04/01 04:02:34;;;;;;;0.88;0.82;;;0.90;99.90;;;;;;4811587;29;20103;-89
2022/04/01 04:05:01;;;;;;;2.65;1.30;;;1.00;99.90;;;;;;4811410;29;20030;-90
2022/04/01 04:07:27;;;;;;;1.20;1.10;;;0.90;99.90;;;;;;4827233;29;20061;-90
2022/04/01 04:09:53;;;;;;;1.92;1.30;;;0.90;99.90;;;;;;4811324;29;20034;-91
2022/04/01 04:12:22;;;;;;;4.88;1.63;;;1.00;99.90;;;;;;4811228;29;20034;-92
2022/04/01 04:14:52;;;;;;;1.98;1.13;;;1.00;99.90;;;;;;4811361;29;20103;-91
2022/04/01 04:17:39;;;;;;;2.78;1.15;;;1.00;99.90;;;;;;4811661;29;20030;-91
2022/04/01 04:20:28;;;;;;;2.97;1.52;;;0.90;99.90;;;;;;4823599;29;20085;-91
2022/04/01 04:23:16;;;;;;;2.22;1.42;;;1.00;99.90;;;;;;4822532;29;20090;-89
2022/04/01 04:25:59;;;;;;;3.08;1.75;;;0.90;99.90;;;;;;4825240;29;20025;-91
2022/04/01 04:28:26;;;;;;;3.20;1.70;;;1.00;99.90;;;;;;4823074;29;20038;-90
2022/04/01 04:30:55;;;;;;;2.47;1.20;;;0.90;99.90;;;;;;4826151;29;20038;-91
2022/04/01 04:33:27;;;;;;;3.22;1.80;;;0.90;99.90;;;;;;4824185;29;20109;-91
2022/04/01 04:35:53;;;;;;;1.88;1.70;;;0.90;99.90;;;;;;4815414;29;20088;-90
2022/04/01 04:38:23;;;;;;;3.42;1.50;;;0.90;99.90;;;;;;4815639;29;20053;-91
2022/04/01 04:40:50;;;;;;;1.95;1.55;;;0.90;99.90;;;;;;4818517;29;20026;-91
2022/04/01 04:43:18;;;;;;;3.40;1.40;;;0.90;99.90;;;;;;4816712;29;20470;-91
2022/04/01 04:45:51;;;;;;;1.00;0.80;;;0.90;99.90;;;;;;4818468;29;20061;-90
2022/04/01 04:48:19;;;;;;;2.45;1.35;;;0.90;99.90;;;;;;4831051;29;20038;-91
2022/04/01 04:50:49;;;;;;;3.08;1.10;;;0.90;99.90;;;;;;4831413;29;20034;-91
2022/04/01 04:53:18;;;;;;;1.80;1.52;;;0.90;99.90;;;;;;4833196;29;20025;-91
2022/04/01 04:55:45;;;;;;;6.43;1.60;;;0.90;99.90;;;;;;4834718;29;20060;-92
2022/04/01 04:58:11;;;;;;;2.25;1.40;;;1.00;99.90;;;;;;4835952;29;20512;-92
2022/04/01 05:00:40;;;;;;;4.38;1.85;;;0.90;99.90;;;;;;4833613;29;20125;-91
2022/04/01 05:03:35;;;;;;;6.97;2.00;;;0.90;99.90;;;;;;4830684;29;20061;-91
2022/04/01 05:06:03;;;;;;;2.55;1.70;;;0.90;99.90;;;;;;4824068;29;20073;-91
2022/04/01 05:09:00;;;;;;;1.92;1.55;;;1.00;99.90;;;;;;4830493;29;20034;-91
2022/04/01 05:11:38;;;;;;;7.68;1.83;;;0.90;99.90;;;;;;4830847;29;20117;-90
2022/04/01 05:14:46;;;;;;;3.33;1.65;;;1.00;99.90;;;;;;4846635;29;20026;-92
2022/04/01 05:17:21;;;;;;;4.13;1.70;;;1.00;99.90;;;;;;4822937;29;20038;-92
2022/04/01 05:19:59;;;;;;;3.10;1.40;;;0.90;99.90;;;;;;4815121;29;20100;-92
2022/04/01 05:22:58;;;;;;;3.53;2.25;;;0.90;99.90;;;;;;4830102;29;20030;-91
2022/04/01 05:25:27;;;;;;;3.20;1.40;;;0.90;99.90;;;;;;4828726;29;20026;-91
2022/04/01 05:28:00;;;;;;;4.35;2.03;;;0.90;99.90;;;;;;4830058;29;20057;-92
2022/04/01 05:30:30;;;;;;;3.58;1.85;;;0.90;99.90;;;;;;4830178;29;20102;-92
2022/04/01 05:33:06;;;;;;;2.30;1.80;;;0.90;99.90;;;;;;4830050;29;20040;-92
2022/04/01 05:35:43;;;;;;;4.03;2.08;;;0.90;99.90;;;;;;4829684;29;20290;-94
2022/04/01 05:38:10;;;;;;;4.85;1.80;;;0.90;99.90;;;;;;4829504;29;20068;-92
2022/04/01 05:40:38;;;;;;;2.53;1.85;;;0.90;99.90;;;;;;4829324;29;20033;-92
2022/04/01 05:43:04;;;;;;;5.18;2.00;;;0.90;99.90;;;;;;4829829;29;20533;-93
2022/04/01 05:45:31;;;;;;;3.55;2.20;;;0.90;99.90;;;;;;4829330;29;20124;-91
2022/04/01 05:47:58;;;;;;;5.10;2.33;;;0.90;99.90;;;;;;4829696;29;20049;-92
2022/04/01 05:50:25;;;;;;;3.10;2.08;;;0.90;99.90;;;;;;4829384;29;20064;-92
2022/04/01 05:52:53;;;;;;;3.60;2.35;;;0.80;99.90;;;;;;4828969;29;20034;-94
2022/04/01 05:55:25;;;;;;;3.72;2.40;;;0.90;99.90;;;;;;4844783;29;20060;-94
2022/04/01 05:57:53;;;;;;;4.95;2.22;;;0.90;99.90;;;;;;4830398;29;20030;-94
2022/04/01 06:00:21;;;;;;;3.05;2.58;;;0.90;99.90;;;;;;4829798;29;20489;-92
2022/04/01 06:03:05;;;;;;;6.88;2.45;;;1.00;99.90;;;;;;4829630;29;20041;-93
2022/04/01 06:05:35;;;;;;;5.50;2.85;;;1.00;99.90;;;;;;4829559;29;21675;-93
2022/04/01 06:08:08;;;;;;;3.85;2.30;;;1.00;99.90;;;;;;4836812;29;20057;-94
2022/04/01 06:11:05;;;;;;;3.40;2.67;;;1.00;99.90;;;;;;4834092;29;20026;-93
2022/04/01 06:13:37;;;;;;;7.00;2.50;;;1.00;99.90;;;;;;4828345;29;20037;-92
2022/04/01 06:16:20;;;;;;;6.72;2.42;;;1.10;99.90;;;;;;4845001;29;20045;-93
2022/04/01 06:21:41;;;;;;;1.63;1.13;;;1.10;99.90;;;;;;4820611;29;20037;-93
2022/04/01 06:24:11;;;;;;;5.22;2.05;;;1.10;99.90;;;;;;4834180;29;20125;-93
2022/04/01 06:26:40;;;;;;;1.73;1.42;;;1.20;99.90;;;;;;4830583;29;20026;-95
2022/04/01 06:29:27;;;;;;;3.30;2.25;;;1.20;99.90;;;;;;4828698;29;20030;-94
2022/04/01 06:32:01;;;;;;;5.63;2.50;;;1.20;99.90;;;;;;4838683;29;20037;-94
2022/04/01 06:34:48;;;;;;;5.45;2.92;;;1.20;99.90;;;;;;4841248;29;20034;-93
2022/04/01 06:37:26;;;;;;;2.60;1.30;;;1.20;99.90;;;;;;4842724;29;20045;-94
2022/04/01 06:40:11;;;;;;;5.80;2.10;;;1.20;99.90;;;;;;4844322;29;20121;-94
2022/04/01 06:42:39;;;;;;;5.45;2.22;;;1.20;99.90;;;;;;4828929;29;20579;-95
2022/04/01 06:45:08;;;;;;;7.43;2.20;;;1.30;99.90;;;;;;4814705;29;20501;-92
2022/04/01 06:47:36;;;;;;;5.15;1.73;;;1.30;99.90;;;;;;4839424;29;20053;-91
2022/04/01 06:50:03;;;;;;;3.90;1.73;;;1.40;99.90;;;;;;4835588;29;20026;-92
2022/04/01 06:52:30;;;;;;;4.65;1.52;;;1.40;99.90;;;;;;4830346;29;20373;-93
2022/04/01 06:55:04;;;;;;;3.63;1.75;;;1.40;99.90;;;;;;4832883;29;20133;-93
2022/04/01 06:57:31;;;;;;;3.55;1.65;;;1.50;99.90;;;;;;4834954;29;20038;-93
2022/04/01 06:59:56;;;;;;;2.55;1.30;;;1.50;99.90;;;;;;4827156;29;20171;-92
2022/04/01 07:02:22;;;;;;;3.58;1.02;;;1.60;99.90;;;;;;4825941;29;20053;-93
2022/04/01 07:04:59;;;;;;;4.13;1.50;;;1.60;99.90;;;;;;4827564;29;20061;-93
2022/04/01 07:07:24;;;;;;;1.33;1.20;;;1.70;99.90;;;;;;4822074;29;20041;-95
2022/04/01 07:09:55;;;;;;;3.47;1.40;;;1.80;99.90;;;;;;4843929;29;20038;-94
2022/04/01 07:15:50;;;;;;;6.38;1.17;;;1.90;99.90;;;;;;5102659;23;20069;-96
2022/04/01 07:18:18;;;;;;;2.13;1.05;;;1.90;99.90;;;;;;4813483;29;20376;-95
2022/04/01 07:20:45;;;;;;;2.78;1.40;;;1.90;99.90;;;;;;4813812;29;20034;-94
2022/04/01 07:23:11;;;;;;;2.10;1.10;;;1.90;99.90;;;;;;4805936;29;20037;-96
2022/04/01 07:25:37;;;;;;;1.70;1.00;;;1.90;99.90;;;;;;4814215;29;20030;-94
2022/04/01 07:28:03;;;;;;;3.20;1.45;;;2.00;99.90;;;;;;4796327;29;20503;-94
2022/04/01 07:30:29;;;;;;;0.70;0.70;;;2.00;99.90;;;;;;4812204;29;20394;-92
2022/04/01 07:32:58;;;;;;;3.28;1.23;;;2.00;99.90;;;;;;4798216;29;20046;-93
2022/04/01 07:35:25;;;;;;;4.35;1.60;;;2.10;99.90;;;;;;4802870;29;20042;-93
2022/04/01 07:37:51;;;;;;;2.13;1.10;;;2.10;99.90;;;;;;4804065;29;20168;-95
2022/04/01 07:40:18;;;;;;;1.33;1.20;;;2.20;99.90;;;;;;4802955;29;20034;-92
2022/04/01 07:42:44;;;;;;;1.52;1.35;;;2.20;99.90;;;;;;4805781;29;20022;-94
2022/04/01 07:45:11;;;;;;;1.63;1.15;;;2.20;99.90;;;;;;4810442;29;20026;-92
2022/04/01 07:47:38;;;;;;;2.38;1.08;;;2.30;99.90;;;;;;4818985;29;20043;-95
2022/04/01 07:50:08;;;;;;;2.22;1.10;;;2.30;99.90;;;;;;4812713;29;20031;-94
2022/04/01 07:52:34;;;;;;;2.78;1.63;;;2.40;99.90;;;;;;4803497;29;20031;-96
2022/04/01 07:54:59;;;;;;;5.40;1.30;;;2.50;99.90;;;;;;4805775;29;20045;-94
2022/04/01 07:57:25;;;;;;;1.70;1.42;;;2.50;99.90;;;;;;4817249;29;20026;-94
2022/04/01 07:59:51;;;;;;;1.98;1.05;;;2.70;99.90;;;;;;4799805;29;20023;-95
2022/04/01 08:02:17;;;;;;;3.75;1.25;;;2.70;99.90;;;;;;4808431;29;20035;-94
2022/04/01 08:04:43;;;;;;;2.33;1.15;;;2.80;99.90;;;;;;4787857;29;20042;-96
2022/04/01 08:07:09;;;;;;;4.30;1.50;;;2.80;99.90;;;;;;4802663;29;20129;-95
2022/04/01 08:09:35;;;;;;;5.13;1.50;;;2.80;99.90;;;;;;4815152;29;20022;-96
2022/04/01 08:12:02;;;;;;;4.07;1.40;;;2.80;99.90;;;;;;4820785;29;20144;-95
2022/04/01 08:14:29;;;;;;;1.38;0.88;;;2.80;99.90;;;;;;4808488;29;20050;-95
2022/04/01 08:16:56;;;;;;;2.25;1.30;;;2.80;99.90;;;;;;4824900;29;20106;-96
2022/04/01 08:19:22;;;;;;;2.50;1.67;;;2.80;99.90;;;;;;4818654;29;20043;-95
2022/04/01 08:21:49;;;;;;;10.00;1.60;;;2.80;99.90;;;;;;4817538;29;20044;-96
2022/04/01 08:24:18;;;;;;;3.03;1.38;;;2.90;99.90;;;;;;4840242;29;20461;-96
2022/04/01 08:26:44;;;;;;;6.53;1.75;;;2.80;99.90;;;;;;4827229;29;20023;-96
2022/04/01 08:29:39;;;;;;;3.20;1.52;;;2.80;99.90;;;;;;4834255;29;20026;-96
2022/04/01 08:32:07;;;;;;;2.63;1.38;;;2.80;99.90;;;;;;4830138;29;20034;-95
2022/04/01 08:34:37;;;;;;;1.92;1.42;;;2.80;99.90;;;;;;4809989;29;20125;-95
2022/04/01 08:51:28;;;;;;;5.00;1.40;;;3.00;99.90;;;;;;4753124;29;20132;-94
2022/04/01 08:53:55;;;;;;;3.58;1.58;;;2.90;99.90;;;;;;4862123;29;20061;-96
2022/04/01 08:56:33;;;;;;;3.05;1.30;;;2.90;99.90;;;;;;4839461;29;20057;-92
2022/04/01 08:58:58;;;;;;;5.10;1.50;;;2.90;99.90;;;;;;4836417;29;20116;-91
2022/04/01 09:01:39;;;;;;;2.40;1.40;;;2.80;99.90;;;;;;4844074;29;20122;-93
2022/04/01 09:04:22;;;;;;;1.90;1.35;;;2.80;99.90;;;;;;4834185;29;20118;-94
2022/04/01 09:06:51;;;;;;;5.07;2.50;;;2.80;99.90;;;;;;4839260;29;20034;-92
2022/04/01 09:09:26;;;;;;;2.77;2.07;;;2.80;99.90;;;;;;4859234;29;20484;-94
2022/04/01 09:12:09;;;;;;;5.45;2.03;;;2.80;99.90;;;;;;4841360;29;20045;-94
2022/04/01 09:14:36;;;;;;;4.25;2.10;;;2.90;99.90;;;;;;4835357;29;20022;-93
2022/04/01 09:17:10;;;;;;;5.75;2.33;;;3.00;99.90;;;;;;4834852;29;20067;-92
2022/04/01 09:19:38;;;;;;;4.00;2.25;;;3.10;99.90;;;;;;4831785;29;20121;-93
2022/04/01 09:22:20;;;;;;;6.07;2.72;;;3.30;99.90;;;;;;4847866;29;20046;-93
2022/04/01 09:25:07;;;;;;;6.50;2.20;;;3.50;99.90;;;;;;4828526;29;20338;-94
2022/04/01 09:27:51;;;;;;;8.05;2.55;;;3.70;99.90;;;;;;4844081;29;20050;-96
2022/04/01 09:30:21;;;;;;;5.00;2.00;;;4.00;99.90;;;;;;4821452;29;20134;-95
2022/04/01 09:33:07;;;;;;;6.05;2.10;;;4.20;99.90;;;;;;4832479;29;20026;-95
2022/04/01 09:35:33;;;;;;;4.50;2.33;;;4.30;99.90;;;;;;4847015;29;20323;-94
2022/04/01 09:38:09;;;;;;;5.60;2.15;;;4.40;99.90;;;;;;4812443;29;20034;-95
2022/04/01 09:40:36;;;;;;;5.30;1.80;;;4.40;99.90;;;;;;4831959;29;20030;-94
2022/04/01 09:43:02;;;;;;;3.85;1.70;;;4.40;99.90;;;;;;4833565;29;20070;-95
2022/04/01 09:45:32;;;;;;;6.38;2.38;;;4.30;99.90;;;;;;4840732;29;20030;-94
2022/04/01 09:48:06;;;;;;;6.90;2.10;;;4.20;99.90;;;;;;4811237;29;20593;-94
2022/04/01 09:50:40;;;;;;;2.67;2.22;;;4.20;99.90;;;;;;4842067;29;20075;-94
2022/04/01 09:53:32;;;;;;;3.35;1.60;;;4.10;99.90;;;;;;4810804;29;20046;-94
2022/04/01 09:55:58;;;;;;;3.13;1.67;;;4.10;99.90;;;;;;4823180;29;20038;-94
2022/04/01 09:58:25;;;;;;;2.45;1.63;;;4.20;99.90;;;;;;4842635;29;20060;-94
2022/04/01 10:00:56;;;;;;;4.53;1.58;;;4.40;99.90;;;;;;4812215;29;20067;-94
2022/04/01 10:03:26;;;;;;;2.75;2.15;;;4.60;99.90;;;;;;4812056;29;20031;-94
2022/04/01 10:05:55;;;;;;;2.80;1.70;;;4.80;99.90;;;;;;4828683;29;20030;-93
2022/04/01 10:08:24;;;;;;;4.47;1.60;;;5.00;99.90;;;;;;4812746;29;20049;-96
2022/04/01 10:10:51;;;;;;;6.25;2.28;;;5.40;99.90;;;;;;4814860;29;20442;-93
2022/04/01 10:13:32;;;;;;;2.13;1.70;;;5.60;99.90;;;;;;4814806;29;20503;-93
2022/04/01 10:15:58;;;;;;;3.00;1.80;;;5.80;99.90;;;;;;4833717;29;20035;-93
2022/04/01 10:18:26;;;;;;;4.35;1.80;;;6.20;99.90;;;;;;4819343;29;20053;-93
2022/04/01 10:20:54;;;;;;;9.43;1.92;;;6.40;99.90;;;;;;4833912;29;20129;-94
2022/04/01 10:23:55;;;;;;;;;;;;;;;;;;;;;
2022/04/01 10:30:03;;;;;;;1.98;1.50;;;7.00;99.90;;;;;;4821702;29;20046;-93
2022/04/01 10:32:37;;;;;;;7.95;2.33;;;7.30;99.90;;;;;;5182199;23;20081;-93
2022/04/01 12:20:56;;;;;;;2.30;0.90;;;11.80;78.60;;;;;;5621480;24;20064;-88
2022/04/01 12:23:26;;;;;;;1.88;0.68;;;11.90;77.70;;;;;;4841117;29;20125;-88
2022/04/01 12:25:54;;;;;;;1.60;0.50;;;12.10;77.20;;;;;;4822731;29;20036;-88
2022/04/01 12:28:24;;;;;;;1.17;0.63;;;12.40;76.00;;;;;;4813853;29;20068;-89
2022/04/01 12:30:54;;;;;;;1.85;0.70;;;12.50;74.10;;;;;;4832485;29;20109;-89
2022/04/01 12:33:25;;;;;;;1.17;0.60;;;12.60;72.70;;;;;;4847128;29;20034;-89
2022/04/01 12:36:02;;;;;;;2.97;0.60;;;12.80;71.20;;;;;;4811843;29;20496;-90
2022/04/01 12:38:31;;;;;;;3.72;0.80;;;12.90;69.20;;;;;;4811028;29;20042;-90
2022/04/01 12:40:59;;;;;;;0.95;0.52;;;13.10;69.80;;;;;;4810591;29;20027;-89
2022/04/01 12:43:28;;;;;;;1.73;0.80;;;13.40;68.30;;;;;;4810550;29;20200;-92
2022/04/01 12:46:03;;;;;;;3.45;0.63;;;13.40;67.20;;;;;;4810865;29;20041;-88
2022/04/01 12:48:29;;;;;;;2.00;0.90;;;13.10;67.00;;;;;;4811056;29;20038;-89
2022/04/01 12:51:02;;;;;;;3.85;1.60;;;12.50;66.60;;;;;;4811161;29;20038;-88
2022/04/01 12:53:30;;;;;;;1.95;1.00;;;12.00;67.90;;;;;;4810823;29;20389;-84
2022/04/01 12:56:18;;;;;;;5.65;1.20;;;11.50;68.70;;;;;;4809226;29;20038;-85
2022/04/01 12:58:55;;;;;;;3.75;1.30;;;11.10;70.10;;;;;;4827209;29;20034;-86
2022/04/01 13:01:25;;;;;;;4.18;1.10;;;11.20;71.20;;;;;;4809747;29;20030;-90
2022/04/01 13:03:52;;;;;;;2.45;0.95;;;11.60;71.60;;;;;;4811991;29;20030;-90
2022/04/01 13:06:18;;;;;;;2.15;0.88;;;11.90;70.70;;;;;;4812718;29;20026;-89
2022/04/01 13:08:44;;;;;;;3.55;0.90;;;11.90;69.20;;;;;;4812432;29;20110;-90
2022/04/01 13:11:19;;;;;;;2.25;1.23;;;11.60;68.40;;;;;;4813694;29;20057;-89
2022/04/01 13:13:51;;;;;;;2.28;1.10;;;11.40;68.90;;;;;;4811096;29;20037;-90
2022/04/01 13:16:17;;;;;;;5.43;1.70;;;11.20;69.50;;;;;;4812635;29;20041;-88
2022/04/01 13:18:42;;;;;;;3.92;1.10;;;11.10;70.20;;;;;;4814058;29;20405;-89
2022/04/01 13:21:08;;;;;;;2.20;0.80;;;10.80;70.20;;;;;;4817395;29;20592;-89
2022/04/01 13:23:37;;;;;;;3.05;1.10;;;10.60;70.40;;;;;;4813725;29;20053;-90
2022/04/01 13:26:03;;;;;;;3.28;0.75;;;10.40;71.00;;;;;;4810641;29;20457;-90
2022/04/01 13:28:28;;;;;;;2.78;1.80;;;10.20;71.30;;;;;;4810712;29;20042;-89
2022/04/01 13:30:54;;;;;;;1.45;1.00;;;10.00;71.10;;;;;;4810453;29;20263;-89
2022/04/01 13:33:20;;;;;;;2.00;0.73;;;9.70;71.40;;;;;;4810050;29;20034;-89
2022/04/01 13:35:46;;;;;;;4.13;1.23;;;9.50;72.30;;;;;;4811238;29;20031;-90
2022/04/01 13:38:12;;;;;;;2.47;0.98;;;9.30;72.90;;;;;;4817859;29;20030;-90
2022/04/01 13:40:38;;;;;;;1.52;1.00;;;9.10;73.40;;;;;;4815631;29;20031;-91
2022/04/01 13:43:04;;;;;;;1.50;1.10;;;8.90;74.10;;;;;;4817747;29;20049;-90
2022/04/01 13:45:31;;;;;;;3.38;1.30;;;8.80;75.10;;;;;;4817885;29;20030;-90
2022/04/01 13:47:58;;;;;;;1.60;1.20;;;8.70;75.90;;;;;;4817519;29;20042;-90
2022/04/01 13:50:24;;;;;;;3.45;1.10;;;9.00;76.80;;;;;;4815677;29;20026;-92
2022/04/01 13:52:50;;;;;;;1.60;1.02;;;9.40;77.30;;;;;;4816549;29;20030;-88
2022/04/01 13:55:16;;;;;;;2.45;1.27;;;9.90;76.60;;;;;;4817560;29;20034;-90
2022/04/01 13:57:42;;;;;;;2.28;1.35;;;10.30;75.10;;;;;;4811629;29;20030;-90
2022/04/01 14:00:11;;;;;;;3.40;1.13;;;10.70;74.20;;;;;;4809288;29;20094;-89
2022/04/01 14:02:37;;;;;;;1.98;0.93;;;10.90;73.20;;;;;;4811563;29;20033;-90
2022/04/01 14:05:02;;;;;;;4.05;0.90;;;10.80;72.00;;;;;;4811408;29;20031;-89
2022/04/01 14:07:28;;;;;;;4.45;1.42;;;10.60;71.20;;;;;;4809354;29;20035;-89
2022/04/01 14:09:54;;;;;;;4.07;1.40;;;10.30;71.00;;;;;;4809152;29;20042;-90
2022/04/01 14:12:19;;;;;;;3.47;1.10;;;9.80;72.20;;;;;;4809657;29;20033;-90
2022/04/01 14:14:46;;;;;;;2.72;1.20;;;9.40;74.20;;;;;;4809267;29;20038;-90
2022/04/01 14:17:12;;;;;;;2.97;0.88;;;9.00;76.70;;;;;;4810566;29;20044;-90
2022/04/01 14:19:37;;;;;;;2.53;1.25;;;8.50;78.80;;;;;;4809883;29;20125;-90
2022/04/01 14:22:03;;;;;;;1.48;0.90;;;8.10;81.00;;;;;;4809288;29;20058;-90
2022/04/01 14:24:30;;;;;;;3.22;1.10;;;7.80;82.50;;;;;;4825864;29;20099;-89
2022/04/01 14:26:56;;;;;;;1.98;1.50;;;7.60;83.80;;;;;;4810065;29;20070;-90
2022/04/01 14:32:06;;;;;;;3.50;0.88;;;7.30;85.60;;;;;;4825865;29;20049;-89
2022/04/01 14:34:41;;;;;;;2.53;0.80;;;7.40;86.40;;;;;;4809184;29;20038;-88
2022/04/01 14:37:08;;;;;;;1.27;0.77;;;7.70;87.50;;;;;;4809048;29;20397;-89
2022/04/01 14:39:34;;;;;;;1.15;0.77;;;8.10;87.50;;;;;;4809147;29;20038;-88
2022/04/01 14:42:00;;;;;;;1.63;0.60;;;8.30;86.40;;;;;;4809312;29;20053;-91
2022/04/01 14:44:26;;;;;;;3.95;0.82;;;8.60;85.60;;;;;;4814329;29;20038;-91
2022/04/01 14:46:53;;;;;;;2.13;0.68;;;8.70;84.50;;;;;;4810616;29;20026;-90
2022/04/01 14:49:22;;;;;;;0.90;0.63;;;8.80;83.60;;;;;;4840112;29;20052;-89
2022/04/01 14:51:48;;;;;;;3.30;1.08;;;8.80;83.20;;;;;;4817276;29;20157;-89
2022/04/01 14:54:15;;;;;;;2.88;0.90;;;8.90;83.20;;;;;;4802132;29;20069;-88
2022/04/01 14:56:42;;;;;;;3.60;1.52;;;9.00;83.00;;;;;;4820146;29;20033;-90
2022/04/01 14:59:08;;;;;;;1.40;0.95;;;9.30;83.10;;;;;;4812811;29;20030;-88
2022/04/01 15:01:34;;;;;;;6.50;1.42;;;9.50;82.50;;;;;;4826078;29;20049;-88
2022/04/01 15:04:00;;;;;;;5.10;1.30;;;9.70;81.90;;;;;;4827818;29;20049;-90
2022/04/01 15:06:27;;;;;;;3.22;1.33;;;10.00;81.40;;;;;;4820229;29;20027;-89
2022/04/01 15:08:52;;;;;;;2.63;0.80;;;10.20;80.50;;;;;;4827871;29;20035;-91
2022/04/01 15:11:21;;;;;;;3.20;1.00;;;10.20;80.10;;;;;;4823294;29;20041;-89
2022/04/01 15:13:55;;;;;;;0.93;0.82;;;10.30;79.40;;;;;;4819288;29;20034;-90
2022/04/01 15:16:21;;;;;;;1.00;0.60;;;10.30;78.60;;;;;;4824840;29;20034;-90
2022/04/01 15:18:47;;;;;;;3.13;1.38;;;10.30;77.90;;;;;;4812578;29;20034;-90
2022/04/01 15:21:13;;;;;;;2.40;0.90;;;10.30;77.50;;;;;;4812191;29;20093;-90
2022/04/01 15:23:40;;;;;;;2.25;0.80;;;10.30;77.10;;;;;;4828121;29;20403;-89
2022/04/01 15:26:06;;;;;;;3.00;0.90;;;10.50;76.60;;;;;;4830710;29;20061;-90
2022/04/01 15:28:33;;;;;;;1.13;1.00;;;10.90;76.10;;;;;;4836897;29;20037;-91